Flight Track Log - Related Links

Times and Time Zones

All times are in EDT time to prevent confusion due to time zone crossing. See the ASH3732 flight status page for this flight to view local times or setup timezone preferences in your user account.

Time Position Orientation Groundspeed Altitude Reporting Facility
EDT Latitude Longitude Course Direction KTS MPH feet Rate Location/Type
Sun 08:48:54 AM 38.9167 -77.5667 270° West 222 255 3,300  Level Potomac TRACON
Sun 08:50:08 AM 38.8789 -77.6556 241° Southwest 258 297 6,200 1,682 Climbing Washington Center
Sun 08:51:06 AM 38.8442 -77.7425 243° Southwest 274 315 7,000 1,311 Climbing Washington Center
Sun 08:52:07 AM 38.8092 -77.8347 244° Southwest 279 321 8,800 1,686 Climbing Washington Center
Sun 08:53:07 AM 38.7864 -77.9325 253° West 285 328 10,400 1,388 Climbing Washington Center
Sun 08:54:00 AM 38.8500 -78.2879 270° West  Level FlightAware Approximate
Sun 08:54:08 AM 38.8172 -78.0589 287° West 311 358 11,600  Level Washington Center
Sun 08:55:06 AM 38.8500 -78.1906 288° West 352 405 13,100 1,550 Climbing Washington Center
Sun 08:56:08 AM 38.8531 -78.3347 272° West 382 440 14,700 1,623 Climbing Washington Center
Sun 08:57:08 AM 38.8517 -78.4811 269° West 403 464 16,400 1,686 Climbing Washington Center
Sun 08:58:09 AM 38.8503 -78.6250 269° West 403 464 18,100 1,488 Climbing Washington Center
Sun 08:59:09 AM 38.8483 -78.7717 269° West 403 464 19,400 1,475 Climbing Washington Center
Sun 09:00:07 AM 38.8444 -78.9208 268° West 408 470 21,000 1,563 Climbing Washington Center
Sun 09:01:08 AM 38.8422 -79.0672 269° West 414 476 22,500 1,488 Climbing Washington Center
Sun 09:02:08 AM 38.8400 -79.2192 269° West 421 484 24,000 1,289 Climbing Washington Center
Sun 09:03:09 AM 38.8394 -79.3683 270° West 426 490 25,100 1,210 Climbing Washington Center
Sun 09:04:07 AM 38.8367 -79.5253 269° West 426 490 26,400 1,169 Climbing Washington Center
Sun 09:05:07 AM 38.8339 -79.6692 269° West 444 511 27,400 992 Climbing Washington Center
Sun 09:06:08 AM 38.8283 -79.8286 267° West 444 511 28,400 1,053 Climbing Washington Center
Sun 09:07:18 AM 38.8225 -80.0283 268° West 451 519 29,700 1,045 Climbing Indianapolis Center
Sun 09:08:20 AM 38.8169 -80.1892 268° West 452 520 30,700 976 Climbing Indianapolis Center
Sun 09:09:21 AM 38.8136 -80.3503 269° West 453 521 31,700 976 Climbing Indianapolis Center
Sun 09:10:23 AM 38.8094 -80.5111 268° West 452 520 32,700 976 Climbing Indianapolis Center
Sun 09:11:24 AM 38.8042 -80.6728 268° West 455 524 33,700 1,033 Climbing Indianapolis Center
Sun 09:12:25 AM 38.7989 -80.8339 268° West 453 521 34,800 1,024 Climbing Indianapolis Center
Sun 09:13:27 AM 38.7947 -80.9956 268° West 453 521 35,800 585 Climbing Indianapolis Center
Sun 09:14:28 AM 38.7892 -81.1578 268° West 457 526 36,000 98 Climbing Indianapolis Center
Sun 09:15:30 AM 38.7831 -81.3589 268° West 472 543 36,000  Level Indianapolis Center
Sun 09:16:31 AM 38.7756 -81.5267 267° West 487 560 36,000  Level Indianapolis Center
Sun 09:17:33 AM 38.7697 -81.6986 268° West 497 572 36,000  Level Indianapolis Center
Sun 09:18:34 AM 38.7622 -81.8711 267° West 492 566 36,000  Level Indianapolis Center
Sun 09:19:36 AM 38.7553 -82.0467 267° West 497 572 36,000  Level Indianapolis Center
Sun 09:20:37 AM 38.7478 -82.2528 267° West 489 563 36,000  Level Indianapolis Center
Sun 09:21:38 AM 38.7397 -82.4258 267° West 489 563 36,000  Level Indianapolis Center
Sun 09:22:40 AM 38.7336 -82.5994 267° West 488 562 36,000  Level Indianapolis Center
Sun 09:23:41 AM 38.7247 -82.7739 266° West 492 566 36,000  Level Indianapolis Center
Sun 09:24:43 AM 38.7172 -82.9475 267° West 490 564 36,000  Level Indianapolis Center
Sun 09:25:44 AM 38.7097 -83.1214 267° West 489 563 36,000  Level Indianapolis Center
Sun 09:26:46 AM 38.7014 -83.3075 267° West 488 562 36,000  Level Indianapolis Center
Sun 09:27:47 AM 38.6919 -83.4831 266° West 489 563 36,000  Level Indianapolis Center
Sun 09:28:49 AM 38.6833 -83.6606 266° West 493 567 36,000  Level Indianapolis Center
Sun 09:29:50 AM 38.6742 -83.8378 266° West 495 570 36,000  Level Indianapolis Center
Sun 09:30:52 AM 38.6656 -84.0147 266° West 495 570 36,000  Level Indianapolis Center
Sun 09:31:53 AM 38.6556 -84.1928 266° West 496 571 36,000  Level Indianapolis Center
Sun 09:32:55 AM 38.6533 -84.3711 269° West 498 573 36,000  Level Indianapolis Center
Sun 09:33:57 AM 38.6650 -84.5753 274° West 500 575 36,000  Level Indianapolis Center
Sun 09:34:58 AM 38.6747 -84.7528 274° West 501 577 36,000  Level Indianapolis Center
Sun 09:36:00 AM 38.6867 -84.9297 275° West 501 577 36,000  Level Indianapolis Center
Sun 09:37:02 AM 38.6950 -85.1081 273° West 503 579 36,000  Level Indianapolis Center
Sun 09:38:03 AM 38.7044 -85.2869 274° West 504 580 36,000  Level Indianapolis Center
Sun 09:39:05 AM 38.7147 -85.4658 274° West 506 582 36,000  Level Indianapolis Center
Sun 09:40:07 AM 38.7231 -85.6464 273° West 508 585 36,000  Level Indianapolis Center
Sun 09:41:08 AM 38.7314 -85.8247 273° West 504 580 36,000  Level Indianapolis Center
Sun 09:42:10 AM 38.7425 -86.0453 274° West 511 588 36,000  Level Indianapolis Center
Sun 09:43:12 AM 38.7503 -86.2261 273° West 508 585 36,000  Level Indianapolis Center
Sun 09:44:13 AM 38.7581 -86.4086 273° West 514 592 36,000  Level Indianapolis Center
Sun 09:45:15 AM 38.7658 -86.5892 273° West 513 590 36,000  Level Indianapolis Center
Sun 09:46:17 AM 38.7731 -86.7681 273° West 507 583 36,000  Level Indianapolis Center
Sun 09:47:19 AM 38.7803 -86.9483 273° West 509 586 36,000  Level Indianapolis Center
Sun 09:48:20 AM 38.7881 -87.1297 273° West 511 588 36,000  Level Indianapolis Center
Sun 09:49:22 AM 38.7950 -87.3472 272° West 512 589 36,000  Level Indianapolis Center
Sun 09:50:24 AM 38.8014 -87.5297 273° West 514 592 36,000  Level Indianapolis Center
Sun 09:51:26 AM 38.8067 -87.7094 272° West 508 585 36,000  Level Indianapolis Center
Sun 09:52:28 AM 38.8122 -87.8914 272° West 511 588 36,000  Level Indianapolis Center
Sun 09:53:29 AM 38.8178 -88.0744 272° West 512 589 36,000  Level Indianapolis Center
Sun 09:54:03 AM 38.8211 -88.1856 272° West 512 589 36,000  Level Kansas City Center
Sun 09:55:06 AM 38.8256 -88.3683 272° West 512 589 36,000  Level Kansas City Center
Sun 09:56:08 AM 38.8306 -88.5517 272° West 513 590 36,000  Level Kansas City Center
Sun 09:57:08 AM 38.8336 -88.7353 271° West 515 593 36,000  Level Kansas City Center
Sun 09:58:10 AM 38.8383 -88.9203 272° West 518 596 36,000  Level Kansas City Center
Sun 09:59:10 AM 38.8433 -89.1300 272° West 520 598 36,000  Level Kansas City Center
Sun 10:00:11 AM 38.8472 -89.3294 271° West 522 601 36,000  Level Kansas City Center
Sun 10:01:12 AM 38.8506 -89.5144 271° West 522 601 36,000  Level Kansas City Center
Sun 10:02:16 AM 38.8522 -89.6986 271° West 524 603 36,000  Level Kansas City Center
Sun 10:03:17 AM 38.8547 -89.8844 271° West 524 603 36,000  Level Kansas City Center
Sun 10:04:18 AM 38.8606 -90.0661 272° West 522 601 36,000  Level Kansas City Center
Sun 10:05:20 AM 38.9175 -90.2469 292° West 533 613 36,000  Level Kansas City Center
Sun 10:06:18 AM 38.9772 -90.4206 294° West 544 626 36,000  Level Kansas City Center
Sun 10:07:22 AM 39.0461 -90.6297 293° West 540 621 36,000  Level Kansas City Center
Sun 10:08:23 AM 39.1078 -90.8025 295° West 538 619 36,000  Level Kansas City Center
Sun 10:09:24 AM 39.1653 -90.9789 293° West 537 618 36,000  Level Kansas City Center
Sun 10:10:25 AM 39.2233 -91.1558 293° West 538 619 36,000  Level Kansas City Center
Sun 10:11:26 AM 39.2808 -91.3322 293° West 538 619 36,000  Level Kansas City Center
Sun 10:12:28 AM 39.3386 -91.5100 293° West 538 619 36,000  Level Kansas City Center
Sun 10:13:29 AM 39.4050 -91.7108 293° West 537 618 36,000  Level Kansas City Center
Sun 10:14:30 AM 39.4622 -91.8883 293° West 537 618 36,000  Level Kansas City Center
Sun 10:15:33 AM 39.5161 -92.0667 291° West 536 617 36,000 -97 Level Kansas City Center
Sun 10:16:34 AM 39.5339 -92.2558 277° West 534 615 35,800 -1,041 Descending Kansas City Center
Sun 10:17:34 AM 39.5461 -92.4472 275° West 535 616 33,900 -1,835 Descending Kansas City Center
Sun 10:18:35 AM 39.5586 -92.6378 275° West 533 613 32,100 -1,839 Descending Kansas City Center
Sun 10:19:38 AM 39.5708 -92.8278 275° West 531 611 30,100 -2,226 Descending Kansas City Center
Sun 10:20:39 AM 39.5819 -93.0214 274° West 536 617 27,500 -3,344 Descending Kansas City Center
Sun 10:21:40 AM 39.5956 -93.2319 275° West 501 577 23,300 -3,787 Descending Kansas City Center
Sun 10:22:41 AM 39.6042 -93.4042 274° West 485 558 19,800 -3,387 Descending Kansas City Center
Sun 10:23:44 AM 39.6139 -93.5717 274° West 474 545 16,300 -3,246 Descending Kansas City Center
Sun 10:24:43 AM 39.6236 -93.7297 275° West 446 513 13,200 -2,195 Descending Kansas City Center
Sun 10:25:47 AM 39.6283 -93.8697 273° West 405 466 11,800 -1,200 Descending Kansas City Center
Sun 10:26:48 AM 39.5767 -93.9803 239° Southwest 313 360 10,700 -1,537 Descending Kansas City Center
Sun 10:27:48 AM 39.5347 -94.0703 239° Southwest 299 344 8,700 -1,820 Descending Kansas City Center
Sun 10:28:50 AM 39.5250 -94.1875 264° West 295 339 7,000 -1,279 Descending Kansas City Center
Sun 10:29:50 AM 39.5150 -94.2853 262° West 287 330 6,100 -484 Descending Kansas City Center
Sun 10:30:54 AM 39.5042 -94.3817 262° West 284 327 6,000 -290 Descending Kansas City Center
Sun 10:31:54 AM 39.4925 -94.4978 263° West 290 334 5,500 -744 Descending Kansas City Center
Sun 10:32:55 AM 39.4728 -94.5872 254° West 280 322 4,500 -1,016 Descending Kansas City Center
Sun 10:33:58 AM 39.4317 -94.6694 237° Southwest 241 277 3,400 -919 Descending Kansas City Center
Sun 10:34:59 AM 39.3906 -94.7011 211° Southwest 173 199 2,600 -787 Descending Kansas City Center
Sun 10:36:00 AM 39.3594 -94.7094 192° South 123 142 1,800 -793 Descending Kansas City Center
Sun 10:37:00 AM 39.3189 -94.7211 193° South 137 158 1,000 -800 Descending Kansas City Center
Sun 10:39:00 AM 39.2976 -94.7139 270° West  Level Estimated

Login

Don't have an account? Register now (free) for customized features, flight alerts, and more!